Time;durP1;ratioP1;P1;durP2;ratioP2;P2;SDS_P1;SDS_P2;PMS_P1;PMS_P2;Temp;Humidity;BMP_temperature;BMP_pressure;BME280_temperature;BME280_humidity;BME280_pressure;Samples;Min_cycle;Max_cycle;Signal;HPM_P1;HPM_P2
2022/04/08 00:53:39;;;;;;;;;;;;;;;6.28;76.50;98124.22;4972853;28;1367;-90
2022/04/08 01:21:33;;;;;;;;;;;;;;;;;;;;;
2022/04/08 01:24:40;;;;;;;;;;;;;;;6.08;77.60;98173.59;4881988;29;1969;-89
2022/04/08 01:30:44;;;;;;;;;;;;;;;;;;;;;
2022/04/08 03:47:18;;;;;;;;;;;;;;;4.94;87.49;98451.94;4975002;28;1371;-91
2022/04/08 03:49:46;;;;;;;;;;;;;;;5.01;86.87;98458.94;4959010;28;1258;-90
2022/04/08 03:52:12;;;;;;;;;;;;;;;5.04;86.43;98471.88;4958932;28;1129;-90
2022/04/08 04:03:06;;;;;;;;;;;;;;;5.02;86.09;98483.00;4897112;29;1906;-89
2022/04/08 04:17:13;;;;;;;;;;;;;;;5.03;84.10;98500.91;4955113;28;1359;-91
2022/04/08 04:19:38;;;;;;;;;;;;;;;5.05;82.62;98525.00;4939424;29;1328;-91
2022/04/08 04:22:29;;;;;;;;;;;;;;;5.00;84.42;98508.81;4939545;29;1356;-89
2022/04/08 04:28:06;;;;;;;;;;;;;;;4.93;82.82;98528.16;4884570;29;1008;-90
2022/04/08 04:36:52;;;;;;;;;;;;;;;4.97;82.02;98561.72;4878363;29;1094;-90
2022/04/08 04:39:33;;;;;;;;;;;;;;;4.92;81.76;98551.75;4863208;29;1322;-90
2022/04/08 04:41:58;;;;;;;;;;;;;;;4.53;83.93;98594.50;4911019;29;1279;-89
2022/04/08 04:44:26;;;;;;;;;;;;;;;4.32;87.55;98572.25;4919782;29;1910;-90
2022/04/08 04:47:00;;;;;;;;;;;;;;;3.82;97.40;98624.94;4920102;29;1231;-91
2022/04/08 04:55:35;;;;;;;;;;;;;;;3.08;100.00;98619.69;4937914;29;637;-91
2022/04/08 04:58:11;;;;;;;;;;;;;;;2.94;100.00;98617.59;4920305;29;1324;-91
2022/04/08 05:00:44;;;;;;;;;;;;;;;2.94;100.00;98614.91;4919547;29;1646;-91
2022/04/08 05:03:11;;;;;;;;;;;;;;;3.07;100.00;98621.59;4919815;29;1942;-92
2022/04/08 05:05:40;;;;;;;;;;;;;;;3.09;100.00;98630.22;4919805;29;1396;-91
2022/04/08 05:08:06;;;;;;;;;;;;;;;3.09;100.00;98646.44;4919566;29;1251;-91
2022/04/08 05:10:35;;;;;;;;;;;;;;;3.14;100.00;98630.22;4918405;29;1487;-91
2022/04/08 05:13:11;;;;;;;;;;;;;;;3.28;100.00;98623.13;4905622;29;1374;-91
2022/04/08 05:15:45;;;;;;;;;;;;;;;3.30;100.00;98623.66;4900747;29;1319;-90
2022/04/08 05:18:30;;;;;;;;;;;;;;;3.13;100.00;98625.91;4900988;29;1209;-90
2022/04/08 05:21:13;;;;;;;;;;;;;;;;;;;;;
2022/04/08 05:30:03;;;;;;;;;;;;;;;3.64;100.00;98642.66;4877619;29;594;-90
2022/04/08 06:44:56;;;;;;;;;;;;;;;4.51;90.26;98703.13;4975398;28;1883;-89
2022/04/08 06:47:21;;;;;;;;;;;;;;;4.63;88.45;98707.38;4977374;28;1029;-91
2022/04/08 06:49:46;;;;;;;;;;;;;;;4.69;86.39;98693.50;4960059;28;1225;-88
2022/04/08 06:52:12;;;;;;;;;;;;;;;4.66;86.14;98702.22;4959925;28;1348;-88
2022/04/08 06:54:37;;;;;;;;;;;;;;;4.75;87.17;98696.97;4959777;28;1244;-89
2022/04/08 06:57:02;;;;;;;;;;;;;;;4.87;86.74;98698.19;4959808;28;1036;-89
2022/04/08 06:59:28;;;;;;;;;;;;;;;4.94;86.49;98708.69;4959809;28;1632;-89
2022/04/08 07:01:53;;;;;;;;;;;;;;;4.91;87.34;98701.94;4949904;28;1386;-89
2022/04/08 07:04:18;;;;;;;;;;;;;;;4.92;86.10;98691.91;4976734;28;1966;-88
2022/04/08 07:06:43;;;;;;;;;;;;;;;4.99;86.82;98697.00;4959756;28;1267;-90
2022/04/08 07:09:08;;;;;;;;;;;;;;;4.93;85.42;98701.66;4959217;28;894;-89
2022/04/08 07:11:34;;;;;;;;;;;;;;;4.91;83.23;98691.09;4959710;28;1044;-88
2022/04/08 07:13:59;;;;;;;;;;;;;;;5.02;84.22;98704.56;4950708;29;1474;-88
2022/04/08 07:16:29;;;;;;;;;;;;;;;5.09;84.59;98702.31;4940313;29;962;-89
2022/04/08 07:18:54;;;;;;;;;;;;;;;5.09;83.26;98710.44;4957749;29;847;-88
2022/04/08 07:21:19;;;;;;;;;;;;;;;5.09;81.97;98708.53;4940392;29;1052;-89
2022/04/08 07:23:44;;;;;;;;;;;;;;;5.16;84.47;98714.41;4940161;29;1959;-89
2022/04/08 07:26:09;;;;;;;;;;;;;;;5.22;82.23;98723.28;4940288;29;1175;-89
2022/04/08 07:28:35;;;;;;;;;;;;;;;5.25;82.42;98720.03;4957350;28;1029;-89
2022/04/08 07:31:00;;;;;;;;;;;;;;;5.23;81.35;98722.19;4940414;29;1266;-89
2022/04/08 07:33:25;;;;;;;;;;;;;;;5.28;79.56;98717.53;4940269;29;1234;-89
2022/04/08 07:35:50;;;;;;;;;;;;;;;5.39;77.97;98729.06;4940317;29;1297;-89
2022/04/08 07:38:16;;;;;;;;;;;;;;;5.52;80.40;98724.84;4942404;28;1282;-89
2022/04/08 07:40:41;;;;;;;;;;;;;;;5.61;79.03;98729.31;4949905;28;1291;-89
2022/04/08 07:43:06;;;;;;;;;;;;;;;5.60;77.49;98721.50;4942813;29;1935;-89
2022/04/08 07:45:31;;;;;;;;;;;;;;;5.62;78.46;98717.38;4939617;29;1210;-89
2022/04/08 07:47:58;;;;;;;;;;;;;;;5.61;77.69;98710.31;4939309;29;1202;-89
2022/04/08 07:50:24;;;;;;;;;;;;;;;5.67;77.40;98725.47;4956639;28;850;-89
2022/04/08 07:52:49;;;;;;;;;;;;;;;5.72;78.69;98727.28;4939409;29;1197;-89
2022/04/08 07:55:17;;;;;;;;;;;;;;;5.79;79.53;98743.22;4939310;29;1217;-89
2022/04/08 07:57:49;;;;;;;;;;;;;;;5.71;77.06;98729.19;4939455;29;1411;-88
2022/04/08 08:00:21;;;;;;;;;;;;;;;5.69;76.52;98734.13;4939396;29;1179;-89
2022/04/08 08:02:47;;;;;;;;;;;;;;;5.84;77.19;98737.72;4956462;29;1961;-88
2022/04/08 08:05:13;;;;;;;;;;;;;;;5.92;76.57;98737.09;4939287;29;1194;-88
2022/04/08 08:07:49;;;;;;;;;;;;;;;6.07;75.30;98726.81;4956509;28;985;-88
